Time;durP1;ratioP1;P1;durP2;ratioP2;P2;SDS_P1;SDS_P2;PMS_P1;PMS_P2;Temp;Humidity;BMP_temperature;BMP_pressure;BME280_temperature;BME280_humidity;BME280_pressure;Samples;Min_cycle;Max_cycle;Signal;HPM_P1;HPM_P2
2022/05/23 00:00:55;;;;;;;4.03;3.03;;;;;;;;;;2106723;28;20517;-44
2022/05/23 00:01:56;;;;;;;4.40;3.65;;;;;;;;;;2106681;28;20052;-44
2022/05/23 00:02:58;;;;;;;4.77;3.27;;;;;;;;;;2106717;28;20048;-44
2022/05/23 00:03:59;;;;;;;4.35;3.53;;;;;;;;;;2106743;28;20056;-44
2022/05/23 00:05:01;;;;;;;6.07;3.03;;;;;;;;;;2106809;28;20048;-44
2022/05/23 00:06:02;;;;;;;4.18;3.25;;;;;;;;;;2106773;28;20079;-45
2022/05/23 00:07:09;;;;;;;3.80;3.17;;;;;;;;;;2106568;28;20119;-45
2022/05/23 00:08:10;;;;;;;3.85;3.20;;;;;;;;;;2106722;28;20551;-45
2022/05/23 00:09:11;;;;;;;5.68;3.65;;;;;;;;;;2106632;28;20135;-45
2022/05/23 00:10:14;;;;;;;9.25;3.42;;;;;;;;;;2106694;28;20127;-45
2022/05/23 00:11:15;;;;;;;4.45;3.70;;;;;;;;;;2106437;28;20161;-45
2022/05/23 00:12:17;;;;;;;5.78;3.60;;;;;;;;;;2106798;28;20426;-45
2022/05/23 00:13:18;;;;;;;4.95;3.45;;;;;;;;;;2106608;28;20139;-45
2022/05/23 00:14:19;;;;;;;6.15;3.90;;;;;;;;;;2106668;28;20127;-45
2022/05/23 00:15:20;;;;;;;4.53;3.70;;;;;;;;;;2106688;28;20132;-45
2022/05/23 00:16:24;;;;;;;4.67;3.60;;;;;;;;;;2106724;28;20071;-45
2022/05/23 00:17:25;;;;;;;5.78;3.72;;;;;;;;;;2106592;28;20044;-45
2022/05/23 00:18:26;;;;;;;4.60;3.17;;;;;;;;;;2105831;28;20086;-46
2022/05/23 00:19:27;;;;;;;4.60;3.33;;;;;;;;;;2098397;28;20090;-45
2022/05/23 00:20:28;;;;;;;4.37;3.30;;;;;;;;;;2098425;28;20083;-61
2022/05/23 00:21:29;;;;;;;5.30;3.88;;;;;;;;;;2098172;28;20547;-62
2022/05/23 00:22:31;;;;;;;4.60;3.23;;;;;;;;;;2098136;28;20105;-62
2022/05/23 00:23:32;;;;;;;;;;;;;;;;;;2098725;28;20119;-61
2022/05/23 00:24:33;;;;;;;4.13;2.92;;;;;;;;;;2098177;28;20299;-62
2022/05/23 00:25:34;;;;;;;5.38;3.58;;;;;;;;;;2098281;28;20093;-62
2022/05/23 00:26:36;;;;;;;4.78;3.67;;;;;;;;;;2098109;28;20135;-61
2022/05/23 00:27:39;;;;;;;5.40;3.90;;;;;;;;;;2098271;28;20119;-62
2022/05/23 00:28:40;;;;;;;5.97;4.10;;;;;;;;;;2098080;28;20222;-62
2022/05/23 00:29:41;;;;;;;5.13;3.95;;;;;;;;;;2098066;28;20052;-61
2022/05/23 00:30:42;;;;;;;4.50;3.53;;;;;;;;;;2098279;28;20053;-61
2022/05/23 00:35:40;;;;;;;4.65;3.20;;;;;;;;;;2098221;28;20273;-62
2022/05/23 00:36:41;;;;;;;5.25;3.20;;;;;;;;;;2098135;28;20127;-61
2022/05/23 00:37:42;;;;;;;4.80;3.33;;;;;;;;;;2098088;28;20080;-61
2022/05/23 00:38:43;;;;;;;5.03;3.90;;;;;;;;;;2097992;28;20123;-61
2022/05/23 00:39:44;;;;;;;6.90;3.70;;;;;;;;;;2098066;28;20076;-61
2022/05/23 00:40:49;;;;;;;3.63;2.70;;;;;;;;;;2098061;28;20048;-62
2022/05/23 00:43:15;;;;;;;4.85;3.72;;;;;;;;;;2098043;28;20124;-61
2022/05/23 00:44:17;;;;;;;5.18;3.92;;;;;;;;;;2098018;28;20458;-61
2022/05/23 00:45:19;;;;;;;4.95;3.80;;;;;;;;;;2098129;28;20544;-61
2022/05/23 00:46:20;;;;;;;5.50;4.03;;;;;;;;;;2097927;28;20409;-61
2022/05/23 00:47:23;;;;;;;5.95;4.05;;;;;;;;;;2098197;28;20047;-61
2022/05/23 00:48:26;;;;;;;5.15;3.30;;;;;;;;;;2098081;28;20401;-61
2022/05/23 00:49:28;;;;;;;4.70;3.60;;;;;;;;;;2097987;28;20127;-61
2022/05/23 00:50:31;;;;;;;4.82;3.78;;;;;;;;;;2098058;28;20139;-61
2022/05/23 00:51:32;;;;;;;4.82;3.55;;;;;;;;;;2097951;28;20424;-61
2022/05/23 00:52:36;;;;;;;4.82;3.58;;;;;;;;;;2098060;28;20132;-61
2022/05/23 00:53:38;;;;;;;5.30;3.35;;;;;;;;;;2097832;28;20512;-61
2022/05/23 00:54:40;;;;;;;5.78;3.80;;;;;;;;;;2098094;28;20045;-61
2022/05/23 00:55:44;;;;;;;7.40;4.20;;;;;;;;;;2098073;28;20048;-61
2022/05/23 00:56:47;;;;;;;5.50;3.85;;;;;;;;;;2097931;28;20382;-61
2022/05/23 00:57:50;;;;;;;4.53;3.47;;;;;;;;;;2098022;28;20048;-61
2022/05/23 00:58:53;;;;;;;6.10;4.00;;;;;;;;;;2097900;28;20051;-62
2022/05/23 00:59:54;;;;;;;6.03;3.55;;;;;;;;;;2097934;28;20448;-61
2022/05/23 01:00:57;;;;;;;4.97;3.58;;;;;;;;;;2097874;28;20500;-61
2022/05/23 01:01:59;;;;;;;5.43;3.80;;;;;;;;;;2098024;28;20051;-61
2022/05/23 01:03:00;;;;;;;;;;;;;;;;;;2098497;28;20548;-61
2022/05/23 01:04:02;;;;;;;4.85;3.53;;;;;;;;;;2097806;28;19925;-61
2022/05/23 01:05:04;;;;;;;5.13;3.60;;;;;;;;;;2097984;28;20049;-62
2022/05/23 01:06:05;;;;;;;5.60;3.67;;;;;;;;;;2098086;28;20127;-61
2022/05/23 01:07:07;;;;;;;4.90;3.55;;;;;;;;;;2097134;28;20048;-62
2022/05/23 01:08:08;;;;;;;5.43;3.83;;;;;;;;;;2103184;28;20130;-62
2022/05/23 01:09:10;;;;;;;6.18;4.03;;;;;;;;;;2106377;28;20075;-62
2022/05/23 01:10:12;;;;;;;4.68;3.72;;;;;;;;;;2106182;28;20093;-62
2022/05/23 01:11:13;;;;;;;6.75;3.80;;;;;;;;;;2106315;28;20142;-62
2022/05/23 01:12:14;;;;;;;5.20;3.90;;;;;;;;;;2106309;28;20127;-62
2022/05/23 01:13:15;;;;;;;5.78;3.50;;;;;;;;;;2106335;28;20123;-61
2022/05/23 01:14:17;;;;;;;5.00;3.50;;;;;;;;;;2106217;28;20191;-61
2022/05/23 01:15:19;;;;;;;6.07;4.28;;;;;;;;;;2106375;28;20122;-62
2022/05/23 01:16:21;;;;;;;4.63;3.65;;;;;;;;;;2106331;28;20139;-62
2022/05/23 01:17:22;;;;;;;;;;;;;;;;;;2106687;28;20389;-61
2022/05/23 01:18:23;;;;;;;5.97;3.33;;;;;;;;;;2105970;28;19927;-62
2022/05/23 01:19:24;;;;;;;6.43;4.10;;;;;;;;;;2106084;28;20139;-62
2022/05/23 01:20:25;;;;;;;5.90;3.30;;;;;;;;;;2106381;28;20135;-62
2022/05/23 01:21:30;;;;;;;4.85;3.60;;;;;;;;;;2106138;28;20131;-61
2022/05/23 01:22:35;;;;;;;5.85;4.00;;;;;;;;;;2106216;28;20036;-62
2022/05/23 01:23:40;;;;;;;5.75;3.88;;;;;;;;;;2105997;28;20051;-62
2022/05/23 01:24:44;;;;;;;5.15;4.20;;;;;;;;;;2106140;28;20546;-62
2022/05/23 01:25:47;;;;;;;6.07;3.90;;;;;;;;;;2106181;28;20521;-62
2022/05/23 01:26:48;;;;;;;5.07;4.13;;;;;;;;;;2106222;28;20131;-62
2022/05/23 01:27:50;;;;;;;5.07;3.83;;;;;;;;;;2106123;28;20205;-62
2022/05/23 01:28:51;;;;;;;5.70;4.18;;;;;;;;;;2106089;28;20493;-62
2022/05/23 01:29:52;;;;;;;7.65;4.60;;;;;;;;;;2106166;28;20131;-62
2022/05/23 01:30:53;;;;;;;6.13;4.43;;;;;;;;;;2106238;28;20058;-62
2022/05/23 01:31:55;;;;;;;4.17;3.27;;;;;;;;;;2106069;28;20048;-61
2022/05/23 01:32:56;;;;;;;5.30;3.95;;;;;;;;;;2106237;28;20138;-61
2022/05/23 01:33:57;;;;;;;4.07;3.50;;;;;;;;;;2105977;28;20052;-61
2022/05/23 01:34:58;;;;;;;5.75;4.32;;;;;;;;;;2106067;28;20044;-62
2022/05/23 01:35:59;;;;;;;5.28;4.07;;;;;;;;;;2106066;28;20497;-62
2022/05/23 01:37:00;;;;;;;6.93;4.60;;;;;;;;;;2106072;28;20189;-62
2022/05/23 01:38:02;;;;;;;7.07;3.87;;;;;;;;;;2106235;28;20131;-62
2022/05/23 01:39:03;;;;;;;7.13;4.55;;;;;;;;;;2105992;28;20368;-62
2022/05/23 01:40:05;;;;;;;9.80;5.90;;;;;;;;;;2106051;28;20048;-62
2022/05/23 01:41:07;;;;;;;9.07;6.05;;;;;;;;;;2105977;28;20596;-62
2022/05/23 01:42:08;;;;;;;7.93;5.70;;;;;;;;;;2106100;28;20048;-62
2022/05/23 01:43:11;;;;;;;7.72;5.40;;;;;;;;;;2105883;28;20365;-62
2022/05/23 01:44:14;;;;;;;8.32;5.63;;;;;;;;;;2106047;28;20040;-61
2022/05/23 01:45:19;;;;;;;11.53;6.80;;;;;;;;;;2106134;28;20078;-62
2022/05/23 01:46:20;;;;;;;9.98;6.15;;;;;;;;;;2106373;28;20108;-45
2022/05/23 01:47:22;;;;;;;11.32;8.00;;;;;;;;;;2106056;28;20198;-45
2022/05/23 01:48:23;;;;;;;13.52;7.95;;;;;;;;;;2106052;28;20046;-45
2022/05/23 01:49:24;;;;;;;13.70;8.43;;;;;;;;;;2105853;28;20567;-45
2022/05/23 01:50:26;;;;;;;14.85;8.65;;;;;;;;;;2106163;28;20123;-45
2022/05/23 01:51:28;;;;;;;10.98;7.32;;;;;;;;;;2106113;28;20126;-45
2022/05/23 01:52:29;;;;;;;;;;;;;;;;;;2106484;28;20123;-45
2022/05/23 01:53:30;;;;;;;12.98;7.63;;;;;;;;;;2106204;28;19955;-45
2022/05/23 01:54:31;;;;;;;13.93;7.60;;;;;;;;;;2105866;28;20412;-45
2022/05/23 01:55:32;;;;;;;19.67;8.57;;;;;;;;;;2105993;28;20048;-45
2022/05/23 01:56:34;;;;;;;12.85;8.40;;;;;;;;;;2106041;28;20071;-45
2022/05/23 01:57:35;;;;;;;14.07;7.75;;;;;;;;;;2106036;28;20127;-45
2022/05/23 02:01:15;;;;;;;10.43;6.30;;;;;;;;;;2106009;28;20139;-45
2022/05/23 02:02:17;;;;;;;10.48;7.50;;;;;;;;;;2105915;28;20032;-45
2022/05/23 02:03:18;;;;;;;10.23;6.47;;;;;;;;;;2105980;28;20123;-45
2022/05/23 02:04:19;;;;;;;11.13;7.53;;;;;;;;;;2105688;28;20051;-45
2022/05/23 02:05:20;;;;;;;10.68;7.00;;;;;;;;;;2105913;28;20522;-45
2022/05/23 02:06:22;;;;;;;10.40;6.80;;;;;;;;;;2105858;28;20048;-46
2022/05/23 02:07:23;;;;;;;10.50;6.97;;;;;;;;;;2105844;28;20368;-45
2022/05/23 02:08:24;;;;;;;13.47;6.60;;;;;;;;;;2105230;28;20058;-45
2022/05/23 02:09:26;;;;;;;7.32;5.55;;;;;;;;;;2105919;28;20043;-45
2022/05/23 02:10:27;;;;;;;9.07;6.10;;;;;;;;;;2105893;28;20131;-46
2022/05/23 02:11:28;;;;;;;9.45;6.82;;;;;;;;;;2105894;28;20043;-45
2022/05/23 02:12:30;;;;;;;10.37;5.63;;;;;;;;;;2105799;28;20048;-45
2022/05/23 02:13:31;;;;;;;9.93;6.45;;;;;;;;;;2105726;28;20047;-45
2022/05/23 02:14:33;;;;;;;9.23;6.32;;;;;;;;;;2105567;28;20086;-45
2022/05/23 02:15:34;;;;;;;13.25;8.05;;;;;;;;;;2105887;28;20044;-45
2022/05/23 02:16:35;;;;;;;11.18;6.80;;;;;;;;;;2105798;28;20071;-45
2022/05/23 02:17:36;;;;;;;13.80;8.13;;;;;;;;;;2105817;28;20574;-45
2022/05/23 02:18:37;;;;;;;17.00;9.23;;;;;;;;;;2103430;28;20461;-61
2022/05/23 02:19:39;;;;;;;18.58;10.20;;;;;;;;;;2101808;28;20044;-61
2022/05/23 02:20:40;;;;;;;13.77;8.25;;;;;;;;;;2105811;28;20072;-61
2022/05/23 02:21:41;;;;;;;18.65;8.32;;;;;;;;;;2105882;28;20056;-61
2022/05/23 02:22:42;;;;;;;22.10;10.55;;;;;;;;;;2105672;28;20135;-61
2022/05/23 02:23:43;;;;;;;16.13;9.70;;;;;;;;;;2105786;28;20055;-62
2022/05/23 02:24:44;;;;;;;17.38;9.30;;;;;;;;;;2106018;28;20503;-45
2022/05/23 02:25:45;;;;;;;21.17;11.82;;;;;;;;;;2105801;28;20134;-45
2022/05/23 02:26:46;;;;;;;23.42;12.75;;;;;;;;;;2105715;28;20044;-45
2022/05/23 02:27:48;;;;;;;22.20;10.23;;;;;;;;;;2106102;28;20055;-45
2022/05/23 02:28:49;;;;;;;;;;;;;;;;;;2106050;28;20159;-45
2022/05/23 02:29:50;;;;;;;19.70;11.82;;;;;;;;;;2105675;28;19926;-45
2022/05/23 02:30:51;;;;;;;24.45;12.27;;;;;;;;;;2105735;28;20050;-45
2022/05/23 02:31:52;;;;;;;22.95;10.85;;;;;;;;;;2105863;28;20060;-46
2022/05/23 02:32:54;;;;;;;26.67;14.40;;;;;;;;;;2105884;28;20135;-45
2022/05/23 02:33:55;;;;;;;22.38;12.40;;;;;;;;;;2105758;28;20185;-45
2022/05/23 02:34:56;;;;;;;23.70;12.23;;;;;;;;;;2105835;28;20517;-45
2022/05/23 02:35:57;;;;;;;22.45;12.77;;;;;;;;;;2105651;28;20130;-45
2022/05/23 02:36:58;;;;;;;26.00;12.47;;;;;;;;;;2105827;28;20044;-45
2022/05/23 02:37:59;;;;;;;25.00;12.68;;;;;;;;;;2105650;28;20091;-45
2022/05/23 02:39:00;;;;;;;27.35;12.73;;;;;;;;;;2105522;28;20097;-45
2022/05/23 02:40:02;;;;;;;23.83;12.82;;;;;;;;;;2105700;28;20052;-45
2022/05/23 02:41:03;;;;;;;24.58;12.63;;;;;;;;;;2105807;28;20058;-45
2022/05/23 02:42:04;;;;;;;24.20;12.98;;;;;;;;;;2105720;28;20199;-45
2022/05/23 02:43:06;;;;;;;20.50;11.55;;;;;;;;;;2105888;28;20054;-61
2022/05/23 02:44:07;;;;;;;;;;;;;;;;;;2105991;28;20052;-61
2022/05/23 02:45:09;;;;;;;24.00;10.70;;;;;;;;;;2105813;28;20281;-61
2022/05/23 02:46:10;;;;;;;27.00;13.60;;;;;;;;;;2105909;28;20345;-61
2022/05/23 02:47:11;;;;;;;20.48;11.38;;;;;;;;;;2105756;28;20347;-61
2022/05/23 02:48:12;;;;;;;26.38;12.93;;;;;;;;;;2105691;28;20052;-61
2022/05/23 02:49:13;;;;;;;21.13;11.37;;;;;;;;;;2105777;28;20470;-61
2022/05/23 02:50:14;;;;;;;21.20;11.65;;;;;;;;;;2105600;28;20564;-61
2022/05/23 02:51:15;;;;;;;21.27;12.23;;;;;;;;;;2105561;28;20501;-61
2022/05/23 02:52:16;;;;;;;22.47;12.20;;;;;;;;;;2105715;28;20075;-61
2022/05/23 02:53:17;;;;;;;25.00;11.00;;;;;;;;;;2105803;28;20819;-61
2022/05/23 02:54:18;;;;;;;19.15;11.70;;;;;;;;;;2105703;28;20126;-61
2022/05/23 02:55:19;;;;;;;23.10;13.02;;;;;;;;;;2105682;28;20481;-61
2022/05/23 02:56:21;;;;;;;26.77;10.23;;;;;;;;;;2105869;28;20083;-61
2022/05/23 02:57:22;;;;;;;20.88;11.73;;;;;;;;;;2105652;28;20131;-61
2022/05/23 02:58:23;;;;;;;17.80;10.17;;;;;;;;;;2105596;28;20481;-62
2022/05/23 02:59:24;;;;;;;21.15;10.05;;;;;;;;;;2105605;28;20048;-61
2022/05/23 03:00:26;;;;;;;16.53;8.63;;;;;;;;;;2105373;28;20044;-61
2022/05/23 03:01:27;;;;;;;17.13;9.93;;;;;;;;;;2105773;28;20127;-61
2022/05/23 03:03:48;;;;;;;15.57;8.20;;;;;;;;;;2105679;28;20048;-61
2022/05/23 03:04:48;;;;;;;16.10;9.57;;;;;;;;;;2105489;28;20119;-61
2022/05/23 03:05:51;;;;;;;15.10;7.82;;;;;;;;;;2105653;28;20489;-61
2022/05/23 03:06:52;;;;;;;16.55;9.02;;;;;;;;;;2105558;28;20086;-61
2022/05/23 03:07:53;;;;;;;17.20;7.97;;;;;;;;;;2105641;28;20488;-61
2022/05/23 03:08:54;;;;;;;20.00;9.25;;;;;;;;;;2105364;28;20062;-59
2022/05/23 03:09:55;;;;;;;17.10;7.63;;;;;;;;;;2105648;28;20059;-61
2022/05/23 03:10:56;;;;;;;14.52;8.98;;;;;;;;;;2105591;28;20151;-62
2022/05/23 03:11:58;;;;;;;18.83;10.20;;;;;;;;;;2105464;28;20487;-61
2022/05/23 03:12:58;;;;;;;17.70;8.35;;;;;;;;;;2105644;28;20127;-61
2022/05/23 03:14:00;;;;;;;16.55;8.70;;;;;;;;;;2105607;28;20501;-61
2022/05/23 03:15:01;;;;;;;;;;;;;;;;;;2105940;28;20478;-61
2022/05/23 03:16:06;;;;;;;14.40;8.27;;;;;;;;;;2105381;28;19924;-61
2022/05/23 03:17:07;;;;;;;12.68;8.07;;;;;;;;;;2105502;28;20518;-61
2022/05/23 03:18:08;;;;;;;14.20;8.50;;;;;;;;;;2105617;28;20177;-61
2022/05/23 03:19:10;;;;;;;13.40;8.48;;;;;;;;;;2098699;28;20097;-62
2022/05/23 03:20:11;;;;;;;13.18;8.20;;;;;;;;;;2097119;28;20123;-61
2022/05/23 03:26:58;;;;;;;12.57;7.90;;;;;;;;;;2097236;28;20048;-61
2022/05/23 03:27:52;;;;;;;12.90;7.95;;;;;;;;;;2097108;28;20108;-62
2022/05/23 03:28:53;;;;;;;16.50;7.97;;;;;;;;;;2097045;28;20048;-62
2022/05/23 03:29:54;;;;;;;13.30;8.80;;;;;;;;;;2097207;28;20076;-62
2022/05/23 03:30:55;;;;;;;14.68;8.52;;;;;;;;;;2098407;28;20048;-62
2022/05/23 03:31:57;;;;;;;16.00;7.47;;;;;;;;;;2098529;28;20131;-61
2022/05/23 03:32:58;;;;;;;12.45;7.72;;;;;;;;;;2098676;28;20075;-61
2022/05/23 03:33:59;;;;;;;12.52;6.82;;;;;;;;;;2098451;28;20505;-61
2022/05/23 03:35:00;;;;;;;16.67;8.48;;;;;;;;;;2098378;28;20135;-61
2022/05/23 03:36:02;;;;;;;13.75;7.75;;;;;;;;;;2098589;28;20048;-62
2022/05/23 03:37:03;;;;;;;14.02;7.63;;;;;;;;;;2098587;28;20135;-45
2022/05/23 03:38:04;;;;;;;14.20;8.77;;;;;;;;;;2098440;28;20076;-45
2022/05/23 03:39:05;;;;;;;13.77;7.23;;;;;;;;;;2098542;28;20048;-45
2022/05/23 03:40:07;;;;;;;13.30;8.15;;;;;;;;;;2098458;28;20285;-45
2022/05/23 03:41:09;;;;;;;12.60;7.95;;;;;;;;;;2098451;28;20036;-45
2022/05/23 03:42:10;;;;;;;11.88;7.70;;;;;;;;;;2098642;28;20051;-45
2022/05/23 03:43:11;;;;;;;12.93;7.60;;;;;;;;;;2098338;28;20131;-45
2022/05/23 03:44:13;;;;;;;13.48;8.55;;;;;;;;;;2098458;28;20391;-45
2022/05/23 03:45:14;;;;;;;;;;;;;;;;;;2098906;28;20044;-45
2022/05/23 03:46:16;;;;;;;12.73;7.60;;;;;;;;;;2098373;28;19921;-45
2022/05/23 03:47:17;;;;;;;15.10;8.07;;;;;;;;;;2098409;28;20593;-45
2022/05/23 03:48:18;;;;;;;10.10;6.93;;;;;;;;;;2098744;28;20124;-61
2022/05/23 03:49:19;;;;;;;14.63;7.83;;;;;;;;;;2098507;28;20436;-61
2022/05/23 03:50:21;;;;;;;12.40;7.70;;;;;;;;;;2098726;28;20053;-61
2022/05/23 03:51:22;;;;;;;13.63;8.32;;;;;;;;;;2098589;28;20045;-61
2022/05/23 03:52:23;;;;;;;14.70;8.68;;;;;;;;;;2098361;28;20136;-61
2022/05/23 03:53:24;;;;;;;12.60;8.50;;;;;;;;;;2098569;28;20082;-61
2022/05/23 03:54:25;;;;;;;11.82;7.32;;;;;;;;;;2098286;28;20045;-61
2022/05/23 03:55:27;;;;;;;12.38;8.32;;;;;;;;;;2098465;28;20127;-61
2022/05/23 03:56:27;;;;;;;12.98;7.38;;;;;;;;;;2100078;28;20049;-61
2022/05/23 03:57:29;;;;;;;11.33;8.13;;;;;;;;;;2106756;28;20056;-61
2022/05/23 03:58:30;;;;;;;14.65;7.88;;;;;;;;;;2106751;28;20312;-61
2022/05/23 03:59:31;;;;;;;13.40;8.70;;;;;;;;;;2106613;28;20504;-61
2022/05/23 04:00:32;;;;;;;12.52;8.45;;;;;;;;;;2106777;28;20181;-61
2022/05/23 04:01:36;;;;;;;13.45;7.90;;;;;;;;;;2106886;28;20634;-61
2022/05/23 04:02:38;;;;;;;16.25;9.43;;;;;;;;;;2106727;28;20127;-61
2022/05/23 04:03:39;;;;;;;13.57;8.70;;;;;;;;;;2106629;28;20552;-61
2022/05/23 04:04:40;;;;;;;11.93;8.15;;;;;;;;;;2106704;28;20055;-61
2022/05/23 04:05:42;;;;;;;15.02;8.88;;;;;;;;;;2106880;28;20044;-61
2022/05/23 04:06:43;;;;;;;15.63;7.70;;;;;;;;;;2106803;28;20199;-61
2022/05/23 04:07:45;;;;;;;14.05;7.28;;;;;;;;;;2106661;28;20185;-61
2022/05/23 04:08:45;;;;;;;11.88;7.75;;;;;;;;;;2106744;28;20048;-61
2022/05/23 04:09:47;;;;;;;12.67;8.17;;;;;;;;;;2106609;28;20137;-61
2022/05/23 04:10:48;;;;;;;14.43;9.25;;;;;;;;;;2106790;28;20136;-61
2022/05/23 04:11:49;;;;;;;13.93;8.85;;;;;;;;;;2106640;28;20122;-61
2022/05/23 04:12:50;;;;;;;13.10;7.68;;;;;;;;;;2106670;28;20404;-61
2022/05/23 04:13:51;;;;;;;12.97;7.93;;;;;;;;;;2106649;28;20051;-61
2022/05/23 04:14:52;;;;;;;16.85;8.82;;;;;;;;;;2107003;28;20066;-45
2022/05/23 04:15:53;;;;;;;13.63;8.85;;;;;;;;;;2106678;28;20075;-45
2022/05/23 04:16:55;;;;;;;13.48;8.32;;;;;;;;;;2106729;28;20040;-45
2022/05/23 04:17:57;;;;;;;15.05;8.63;;;;;;;;;;2106775;28;20131;-45
2022/05/23 04:18:58;;;;;;;16.17;9.03;;;;;;;;;;2106399;28;20051;-45
2022/05/23 04:19:59;;;;;;;13.77;8.65;;;;;;;;;;2106893;28;20051;-61
2022/05/23 04:21:01;;;;;;;12.63;8.47;;;;;;;;;;2106693;28;20040;-61
2022/05/23 04:22:03;;;;;;;18.80;9.98;;;;;;;;;;2106701;28;20051;-61
2022/05/23 04:23:08;;;;;;;15.82;8.60;;;;;;;;;;2106519;28;20075;-61
2022/05/23 04:24:10;;;;;;;15.75;8.57;;;;;;;;;;2106495;28;20044;-61
2022/05/23 04:25:11;;;;;;;16.17;10.00;;;;;;;;;;2106574;28;20135;-61
2022/05/23 04:26:12;;;;;;;19.02;10.23;;;;;;;;;;2106695;28;20039;-61
2022/05/23 04:27:13;;;;;;;14.98;9.90;;;;;;;;;;2106640;28;20544;-61
2022/05/23 04:28:14;;;;;;;18.30;10.13;;;;;;;;;;2106512;28;20062;-61
2022/05/23 04:29:16;;;;;;;17.08;10.45;;;;;;;;;;2106772;28;20044;-45
2022/05/23 04:30:17;;;;;;;17.60;10.43;;;;;;;;;;2106503;28;20127;-45
2022/05/23 04:31:19;;;;;;;21.90;11.23;;;;;;;;;;2106620;28;20478;-61
2022/05/23 04:35:13;;;;;;;21.70;10.13;;;;;;;;;;2106523;28;20169;-61
2022/05/23 04:36:14;;;;;;;17.30;9.70;;;;;;;;;;2106630;28;20122;-61
2022/05/23 04:37:17;;;;;;;19.30;10.45;;;;;;;;;;2106334;28;20131;-61
2022/05/23 04:38:18;;;;;;;17.67;10.03;;;;;;;;;;2106635;28;20071;-61
2022/05/23 04:39:19;;;;;;;14.23;9.45;;;;;;;;;;2106407;28;20067;-61
2022/05/23 04:40:23;;;;;;;19.93;10.40;;;;;;;;;;2106385;28;20044;-61
2022/05/23 04:41:24;;;;;;;19.63;10.35;;;;;;;;;;2106162;28;20119;-62
2022/05/23 04:42:28;;;;;;;14.80;9.50;;;;;;;;;;2105547;28;20548;-62
2022/05/23 04:43:29;;;;;;;19.92;9.77;;;;;;;;;;2106330;28;20052;-61
2022/05/23 04:44:30;;;;;;;18.30;9.23;;;;;;;;;;2106349;28;20094;-62
2022/05/23 04:45:31;;;;;;;19.15;9.35;;;;;;;;;;2106494;28;20131;-61
2022/05/23 04:46:33;;;;;;;15.00;9.03;;;;;;;;;;2106372;28;20051;-61
2022/05/23 04:50:13;;;;;;;19.27;10.27;;;;;;;;;;2106489;28;20147;-63
2022/05/23 04:51:14;;;;;;;18.47;10.57;;;;;;;;;;2106589;28;20077;-63
2022/05/23 04:52:19;;;;;;;21.88;10.40;;;;;;;;;;2106473;28;20071;-62
2022/05/23 04:53:21;;;;;;;20.40;11.20;;;;;;;;;;2106220;28;20489;-62
2022/05/23 04:54:21;;;;;;;23.40;11.40;;;;;;;;;;2106360;28;20040;-63
2022/05/23 04:55:23;;;;;;;23.08;10.98;;;;;;;;;;2106457;28;20051;-63
2022/05/23 04:56:24;;;;;;;18.75;10.18;;;;;;;;;;2106474;28;20092;-63
2022/05/23 04:57:26;;;;;;;18.35;10.23;;;;;;;;;;2106315;28;20378;-63
2022/05/23 04:58:27;;;;;;;21.63;10.75;;;;;;;;;;2106449;28;20059;-63
2022/05/23 04:59:28;;;;;;;20.85;10.02;;;;;;;;;;2106211;28;20487;-63
2022/05/23 05:00:29;;;;;;;21.70;10.02;;;;;;;;;;2106508;28;20054;-63
2022/05/23 05:01:30;;;;;;;21.35;11.20;;;;;;;;;;2106398;28;20051;-63
2022/05/23 05:02:31;;;;;;;19.83;10.15;;;;;;;;;;2106502;28;20048;-63
2022/05/23 05:03:33;;;;;;;19.83;11.80;;;;;;;;;;2106438;28;20550;-46
2022/05/23 05:04:34;;;;;;;;;;;;;;;;;;2106853;28;20067;-45
2022/05/23 05:05:36;;;;;;;16.40;9.90;;;;;;;;;;2106406;28;19920;-45
2022/05/23 05:06:37;;;;;;;19.80;10.05;;;;;;;;;;2106424;28;20069;-45
2022/05/23 05:07:38;;;;;;;18.95;9.85;;;;;;;;;;2106299;28;20591;-45
2022/05/23 05:08:39;;;;;;;14.97;9.83;;;;;;;;;;2106149;28;20093;-45
2022/05/23 05:09:40;;;;;;;23.13;9.85;;;;;;;;;;2106260;28;20491;-45
2022/05/23 05:10:45;;;;;;;17.38;10.52;;;;;;;;;;2106225;28;20497;-45
2022/05/23 05:11:46;;;;;;;16.92;9.70;;;;;;;;;;2106358;28;20156;-45
2022/05/23 05:12:48;;;;;;;19.00;10.27;;;;;;;;;;2106197;28;20599;-46
2022/05/23 05:13:49;;;;;;;20.17;10.18;;;;;;;;;;2106290;28;20048;-45
2022/05/23 05:14:50;;;;;;;15.98;9.35;;;;;;;;;;2106314;28;20076;-45
2022/05/23 05:15:51;;;;;;;17.83;10.53;;;;;;;;;;2106191;28;20084;-45
2022/05/23 05:16:52;;;;;;;21.50;9.82;;;;;;;;;;2106307;28;20750;-45
2022/05/23 05:17:54;;;;;;;25.73;10.63;;;;;;;;;;2106306;28;20048;-46
2022/05/23 05:18:55;;;;;;;20.80;11.18;;;;;;;;;;2101385;28;20281;-46
2022/05/23 05:19:56;;;;;;;21.52;10.55;;;;;;;;;;2097792;28;20135;-45
2022/05/23 05:21:02;;;;;;;24.95;10.32;;;;;;;;;;2097852;28;20060;-46
2022/05/23 05:22:03;;;;;;;21.67;10.13;;;;;;;;;;2097835;28;20461;-45
2022/05/23 05:23:04;;;;;;;22.07;9.80;;;;;;;;;;2097676;28;20040;-45
2022/05/23 05:24:05;;;;;;;19.45;9.68;;;;;;;;;;2097712;28;20045;-46
2022/05/23 05:25:08;;;;;;;18.55;9.95;;;;;;;;;;2097944;28;20040;-45
2022/05/23 05:26:09;;;;;;;13.88;7.95;;;;;;;;;;2097807;28;20049;-46
2022/05/23 05:27:11;;;;;;;24.33;8.80;;;;;;;;;;2098129;28;20177;-63
2022/05/23 05:28:12;;;;;;;17.70;8.93;;;;;;;;;;2097716;28;20045;-63
2022/05/23 05:29:13;;;;;;;19.00;8.43;;;;;;;;;;2097859;28;20067;-63
2022/05/23 05:30:19;;;;;;;18.80;9.52;;;;;;;;;;2097780;28;20131;-63
2022/05/23 05:31:22;;;;;;;17.80;8.90;;;;;;;;;;2097735;28;20512;-62
2022/05/23 05:32:25;;;;;;;15.32;8.27;;;;;;;;;;2098076;28;20048;-63
2022/05/23 05:33:28;;;;;;;19.05;9.50;;;;;;;;;;2097734;28;20508;-62
2022/05/23 05:34:32;;;;;;;18.00;9.52;;;;;;;;;;2097626;28;20136;-62
2022/05/23 05:35:36;;;;;;;17.42;8.68;;;;;;;;;;2097760;28;20135;-63
2022/05/23 05:36:39;;;;;;;17.52;9.13;;;;;;;;;;2097778;28;20052;-63
2022/05/23 05:37:45;;;;;;;19.52;8.57;;;;;;;;;;2097764;28;20052;-62
2022/05/23 05:38:49;;;;;;;16.80;8.57;;;;;;;;;;2097829;28;20052;-63
2022/05/23 05:39:54;;;;;;;23.00;8.93;;;;;;;;;;2097763;28;20051;-63
2022/05/23 05:41:01;;;;;;;19.27;7.40;;;;;;;;;;2097778;28;20044;-63
2022/05/23 05:42:05;;;;;;;17.90;7.88;;;;;;;;;;2097669;28;20127;-62
2022/05/23 05:43:07;;;;;;;16.52;8.10;;;;;;;;;;2097538;28;20635;-63
2022/05/23 05:44:30;;;;;;;15.55;6.65;;;;;;;;;;2097887;28;20522;-63
2022/05/23 05:45:32;;;;;;;12.68;7.00;;;;;;;;;;2097774;28;20105;-63
2022/05/23 05:46:35;;;;;;;12.43;6.30;;;;;;;;;;2097564;28;20497;-63
2022/05/23 05:47:37;;;;;;;13.30;6.65;;;;;;;;;;2097741;28;20049;-63
2022/05/23 05:48:40;;;;;;;12.18;6.03;;;;;;;;;;2097619;28;20045;-63
2022/05/23 05:49:44;;;;;;;13.50;6.15;;;;;;;;;;2105384;28;20135;-63
2022/05/23 05:50:47;;;;;;;11.68;5.50;;;;;;;;;;2106088;28;20044;-64
2022/05/23 05:51:48;;;;;;;12.23;6.22;;;;;;;;;;2106192;28;20044;-63
2022/05/23 05:52:49;;;;;;;11.98;6.53;;;;;;;;;;2106125;28;20052;-64
2022/05/23 05:53:51;;;;;;;9.95;5.63;;;;;;;;;;2105625;28;20472;-64
2022/05/23 05:54:52;;;;;;;;;;;;;;;;;;2106591;28;20583;-63
2022/05/23 05:55:54;;;;;;;9.05;5.18;;;;;;;;;;2105917;28;20318;-64
2022/05/23 05:56:55;;;;;;;10.25;5.40;;;;;;;;;;2106085;28;20131;-64
2022/05/23 05:57:57;;;;;;;7.10;4.60;;;;;;;;;;2105971;28;20135;-64
2022/05/23 05:58:58;;;;;;;6.88;4.78;;;;;;;;;;2106039;28;20139;-63
2022/05/23 06:00:00;;;;;;;8.23;5.30;;;;;;;;;;2105893;28;20070;-64
2022/05/23 06:01:01;;;;;;;8.55;5.05;;;;;;;;;;2106034;28;20359;-64
2022/05/23 06:02:02;;;;;;;7.47;4.40;;;;;;;;;;2106223;28;20112;-64
2022/05/23 06:03:03;;;;;;;7.80;4.88;;;;;;;;;;2105892;28;20390;-64
2022/05/23 06:04:04;;;;;;;8.07;4.13;;;;;;;;;;2105891;28;20055;-64
2022/05/23 06:05:07;;;;;;;7.57;4.23;;;;;;;;;;2106101;28;20036;-52
2022/05/23 06:11:28;;;;;;;7.32;4.38;;;;;;;;;;2105684;28;20170;-46
2022/05/23 06:12:29;;;;;;;8.40;4.03;;;;;;;;;;2105312;28;20058;-46
2022/05/23 06:13:31;;;;;;;5.82;3.67;;;;;;;;;;2105832;28;20040;-45
2022/05/23 06:14:32;;;;;;;5.88;3.85;;;;;;;;;;2105763;28;20453;-45
2022/05/23 06:15:33;;;;;;;5.70;3.63;;;;;;;;;;2105783;28;20522;-46
2022/05/23 06:16:36;;;;;;;6.53;3.55;;;;;;;;;;2105807;28;20131;-45
2022/05/23 06:17:39;;;;;;;6.05;3.70;;;;;;;;;;2105921;28;20059;-46
2022/05/23 06:18:40;;;;;;;6.93;3.80;;;;;;;;;;2105993;28;20055;-46
2022/05/23 06:19:43;;;;;;;6.67;3.67;;;;;;;;;;2105899;28;20052;-46
2022/05/23 06:20:45;;;;;;;4.60;3.55;;;;;;;;;;2105838;28;20133;-46
2022/05/23 06:21:48;;;;;;;5.78;3.60;;;;;;;;;;2105910;28;20468;-45
2022/05/23 06:22:50;;;;;;;5.53;3.60;;;;;;;;;;2105932;28;20123;-45
2022/05/23 06:23:51;;;;;;;6.40;3.78;;;;;;;;;;2105719;28;20456;-45
2022/05/23 06:24:52;;;;;;;8.40;3.90;;;;;;;;;;2105708;28;20446;-46
2022/05/23 06:25:53;;;;;;;8.10;3.63;;;;;;;;;;2105821;28;20134;-46
2022/05/23 06:26:54;;;;;;;5.00;3.50;;;;;;;;;;2105699;28;20508;-46
2022/05/23 06:27:55;;;;;;;7.93;3.90;;;;;;;;;;2105913;28;20055;-45
2022/05/23 06:28:57;;;;;;;4.60;3.60;;;;;;;;;;2105804;28;20074;-45
2022/05/23 06:29:58;;;;;;;7.03;3.15;;;;;;;;;;2105971;28;20090;-45
2022/05/23 06:30:59;;;;;;;6.73;3.70;;;;;;;;;;2105708;28;20135;-46
2022/05/23 06:32:02;;;;;;;7.22;3.92;;;;;;;;;;2105630;28;20050;-45
2022/05/23 06:33:03;;;;;;;6.53;3.40;;;;;;;;;;2105874;28;20048;-45